ENBN/BNN METAR and TAF weather

Enter ICAO airport designator
Station Type Date Time Source
ENBN METAR 2022/06/30 00:20 UTC NOAA

ENBN 300020Z AUTO 01006KT 340V040 9999NDV NCD 12/11 Q1020


Station Type Date Time Source
ENBN Decoded METAR 2022/06/30 00:20 UTC NOAA

Bronnoysund / Bronnoy, Norway (ENBN) 65-28N 012-13E 9M
Jun 29, 2022 - 08:20 PM EDT / 2022.06.30 0020 UTC
Wind: from the N (010 degrees) at 7 MPH (6 KT) (direction variable):0
Temperature: 53 F (12 C)
Dew Point: 51 F (11 C)
Relative Humidity: 93%
Pressure (altimeter): 30.12 in. Hg (1020 hPa)
ob: ENBN 300020Z AUTO 01006KT 340V040 9999NDV NCD 12/11 Q1020
cycle: 0

Station Type Date Time Source
ENBN TAF 2011/03/27 18:12 UTC NOAA

TAF TAF ENBN 261700Z 2618/2718 CNL

Example: see airport list